createdAt,value
2023-01-30T00:02:02.424Z,101320.41
2023-01-30T00:04:30.322Z,101349.41
2023-01-30T00:06:56.894Z,101332.00
2023-01-30T00:09:23.411Z,101308.31
2023-01-30T00:11:50.022Z,101314.94
2023-01-30T00:14:16.701Z,101322.94
2023-01-30T00:16:43.328Z,101320.28
2023-01-30T00:19:10.089Z,101323.09
2023-01-30T00:21:38.112Z,101308.38
2023-01-30T00:24:05.078Z,101279.63
2023-01-30T00:26:31.697Z,101299.72
2023-01-30T00:28:58.458Z,101295.16
2023-01-30T00:31:25.142Z,101279.66
2023-01-30T00:33:51.886Z,101281.59
2023-01-30T00:36:18.561Z,101261.88
2023-01-30T00:38:46.437Z,101288.97
2023-01-30T00:41:13.069Z,101273.16
2023-01-30T00:43:41.686Z,101273.78
2023-01-30T00:46:15.344Z,101257.94
2023-01-30T00:48:42.269Z,101269.16
2023-01-30T00:51:08.928Z,101261.94
2023-01-30T00:53:35.753Z,101255.94
2023-01-30T00:56:04.507Z,101229.75
2023-01-30T00:58:31.256Z,101257.41
2023-01-30T01:00:57.762Z,101215.50
2023-01-30T01:03:24.706Z,101242.63
2023-01-30T01:05:51.336Z,101219.53
2023-01-30T01:08:17.962Z,101220.81
2023-01-30T01:10:44.531Z,101236.25
2023-01-30T01:13:12.466Z,101181.75
2023-01-30T01:15:39.185Z,101231.81
2023-01-30T01:18:06.548Z,101221.22
2023-01-30T01:20:33.165Z,101209.16
2023-01-30T01:22:59.704Z,101185.69
2023-01-30T01:25:26.401Z,101204.22
2023-01-30T01:27:54.409Z,101212.09
2023-01-30T01:30:22.683Z,101219.66
2023-01-30T01:32:49.323Z,101220.69
2023-01-30T01:35:16.263Z,101211.75
2023-01-30T01:37:43.142Z,101214.50
2023-01-30T01:40:17.444Z,101215.19
2023-01-30T01:42:44.266Z,101220.22
2023-01-30T01:45:17.907Z,101193.22
2023-01-30T01:47:52.216Z,101201.06
2023-01-30T01:50:25.052Z,101200.09
2023-01-30T01:52:54.156Z,101196.66
2023-01-30T01:55:23.045Z,101194.91
2023-01-30T01:57:53.846Z,101187.72
2023-01-30T02:00:22.087Z,101172.91
2023-01-30T02:02:56.069Z,101183.34
2023-01-30T02:05:24.531Z,101184.91
2023-01-30T02:07:55.364Z,101181.38
2023-01-30T02:10:34.024Z,101151.34
2023-01-30T02:13:00.637Z,101178.38
2023-01-30T02:15:27.152Z,101169.94
2023-01-30T02:17:56.231Z,101170.72
2023-01-30T02:20:31.424Z,101179.66
2023-01-30T02:23:21.144Z,101166.75
2023-01-30T02:26:09.982Z,101139.94
2023-01-30T02:28:55.649Z,101160.78
2023-01-30T02:31:36.191Z,101149.19
2023-01-30T02:34:26.502Z,101134.03
2023-01-30T02:37:04.276Z,101138.78
2023-01-30T02:39:44.626Z,101123.97
2023-01-30T02:42:22.804Z,101117.44
2023-01-30T02:44:59.199Z,101112.94
2023-01-30T02:47:34.409Z,101114.63
2023-01-30T02:50:07.408Z,101104.38
2023-01-30T02:52:35.309Z,101097.47
2023-01-30T02:55:08.555Z,101107.53
2023-01-30T02:57:35.337Z,101072.09
2023-01-30T03:00:04.961Z,101098.19
2023-01-30T03:02:59.178Z,101096.56
2023-01-30T03:05:37.865Z,101104.09
2023-01-30T03:08:19.945Z,101104.09
2023-01-30T03:10:58.369Z,101099.56
2023-01-30T03:13:34.541Z,101093.88
2023-01-30T03:16:06.453Z,101106.38
2023-01-30T03:18:34.790Z,101103.88
2023-01-30T03:21:05.171Z,101092.59
2023-01-30T03:23:32.186Z,101087.19
2023-01-30T03:26:00.141Z,101060.88
2023-01-30T03:28:28.319Z,101082.00
2023-01-30T03:30:54.936Z,101077.63
2023-01-30T03:33:21.654Z,101073.25
2023-01-30T03:35:51.200Z,101060.13
2023-01-30T03:38:18.256Z,101041.78
2023-01-30T03:40:46.617Z,101055.28
2023-01-30T03:43:13.247Z,101060.19
2023-01-30T03:45:39.849Z,101052.28
2023-01-30T03:48:07.133Z,101050.34
2023-01-30T03:50:34.060Z,101039.53
2023-01-30T03:53:02.470Z,101033.78
2023-01-30T03:55:29.641Z,101021.91
2023-01-30T03:57:56.929Z,101023.59
2023-01-30T04:00:25.612Z,101011.59
2023-01-30T04:02:52.348Z,101014.59
2023-01-30T04:05:20.270Z,101012.13
2023-01-30T04:07:51.907Z,101011.59
2023-01-30T04:10:20.359Z,101007.41
2023-01-30T04:12:47.504Z,100980.78
2023-01-30T04:15:14.373Z,100997.56
2023-01-30T04:17:52.983Z,100982.53
2023-01-30T04:20:31.478Z,100988.34
2023-01-30T04:22:58.232Z,100972.69
2023-01-30T04:25:28.003Z,100983.97
2023-01-30T04:27:55.598Z,100949.91
2023-01-30T04:30:26.904Z,100961.34
2023-01-30T04:33:03.529Z,100973.41
2023-01-30T04:35:30.341Z,100959.06
2023-01-30T04:37:56.922Z,100971.59
2023-01-30T04:40:23.521Z,100960.50
2023-01-30T04:42:51.475Z,100964.56
2023-01-30T04:45:48.761Z,100965.56
2023-01-30T04:48:16.677Z,100959.41
2023-01-30T04:50:47.643Z,100959.19
2023-01-30T04:53:15.094Z,100932.91
2023-01-30T04:55:42.062Z,100940.25
2023-01-30T04:58:10.354Z,100954.50
2023-01-30T05:00:37.359Z,100949.91
2023-01-30T05:03:04.428Z,100947.00
2023-01-30T05:05:30.986Z,100955.13
2023-01-30T05:07:57.673Z,100948.22
2023-01-30T05:10:24.493Z,100926.66
2023-01-30T05:12:51.337Z,100919.06
2023-01-30T05:15:19.545Z,100940.06
2023-01-30T05:17:46.446Z,100915.38
2023-01-30T05:20:13.948Z,100907.75
2023-01-30T05:22:40.646Z,100918.22
2023-01-30T05:25:08.332Z,100904.00
2023-01-30T05:27:35.069Z,100910.63
2023-01-30T05:30:01.719Z,100896.16
2023-01-30T05:32:29.827Z,100917.22
2023-01-30T05:34:56.446Z,100893.03
2023-01-30T05:37:23.058Z,100907.50
2023-01-30T05:39:49.597Z,100910.44
2023-01-30T05:42:16.401Z,100909.06
2023-01-30T05:44:42.940Z,100905.34
2023-01-30T05:47:09.535Z,100905.75
2023-01-30T05:49:37.401Z,100909.84
2023-01-30T05:52:04.342Z,100905.47
2023-01-30T05:54:31.015Z,100913.31
2023-01-30T05:56:57.659Z,100882.84
2023-01-30T05:59:24.201Z,100910.28
2023-01-30T06:01:50.791Z,100908.78
2023-01-30T06:04:17.327Z,100910.47
2023-01-30T06:06:45.244Z,100908.44
2023-01-30T06:09:11.751Z,100901.50
2023-01-30T06:11:38.360Z,100911.31
2023-01-30T06:14:04.891Z,100901.41
2023-01-30T06:16:31.584Z,100910.59
2023-01-30T06:18:58.157Z,100917.69
2023-01-30T06:21:24.738Z,100914.78
2023-01-30T06:23:53.320Z,100906.50
2023-01-30T06:26:19.969Z,100904.78
2023-01-30T06:28:46.579Z,100906.97
2023-01-30T06:31:13.389Z,100922.56
2023-01-30T06:33:40.271Z,100925.38
2023-01-30T06:36:07.738Z,100911.53
2023-01-30T06:38:34.290Z,100919.22
2023-01-30T06:41:02.280Z,100928.16
2023-01-30T06:43:28.867Z,100936.69
2023-01-30T06:45:55.552Z,100926.50
2023-01-30T06:48:22.142Z,100927.63
2023-01-30T06:50:49.183Z,100915.53
2023-01-30T06:53:15.726Z,100908.25
2023-01-30T06:55:42.331Z,100921.47
2023-01-30T06:58:12.140Z,100879.94
2023-01-30T07:00:40.242Z,100915.00
2023-01-30T07:03:10.619Z,100919.41
2023-01-30T07:05:37.598Z,100922.03
2023-01-30T07:08:04.160Z,100935.59
2023-01-30T07:10:30.822Z,100905.38
2023-01-30T07:12:57.359Z,100951.47
2023-01-30T07:15:25.635Z,100947.16
2023-01-30T07:17:52.196Z,100932.13
2023-01-30T07:20:19.073Z,100953.72
2023-01-30T07:22:50.442Z,100945.41
2023-01-30T07:25:17.388Z,100942.69
2023-01-30T07:27:49.481Z,100946.06
2023-01-30T07:30:16.208Z,100956.72
2023-01-30T07:32:44.063Z,100939.59
2023-01-30T07:35:10.691Z,100938.28
2023-01-30T07:37:37.265Z,100906.88
2023-01-30T07:40:04.638Z,100923.06
2023-01-30T07:42:31.322Z,100940.94
2023-01-30T07:44:57.929Z,100952.16
2023-01-30T07:47:24.434Z,100955.31
2023-01-30T07:49:52.409Z,100959.81
2023-01-30T07:52:18.962Z,100956.53
2023-01-30T07:54:45.579Z,100942.91
2023-01-30T07:57:12.121Z,100955.06
2023-01-30T07:59:38.725Z,100962.63
2023-01-30T08:02:06.485Z,100965.53
2023-01-30T08:04:33.267Z,100968.16
2023-01-30T08:07:01.211Z,100961.69
2023-01-30T08:09:27.908Z,100968.63
2023-01-30T08:11:54.435Z,100975.16
2023-01-30T08:14:20.995Z,100970.28
2023-01-30T08:16:47.543Z,100965.44
2023-01-30T08:19:14.148Z,100975.25
2023-01-30T08:21:40.677Z,100965.72
2023-01-30T08:24:09.058Z,100964.13
2023-01-30T08:26:35.635Z,100960.28
2023-01-30T08:29:02.287Z,100969.81
2023-01-30T08:31:28.900Z,100952.72
2023-01-30T08:33:55.542Z,100965.50
2023-01-30T08:36:22.069Z,100961.88
2023-01-30T08:38:48.639Z,100936.53
2023-01-30T08:41:16.562Z,100958.25
2023-01-30T08:43:43.168Z,100964.03
2023-01-30T08:46:09.904Z,100987.59
2023-01-30T08:48:47.651Z,101002.78
2023-01-30T08:51:15.931Z,100967.03
2023-01-30T08:53:42.528Z,100987.13
2023-01-30T08:56:09.179Z,100986.75
2023-01-30T08:58:37.066Z,100980.41
2023-01-30T09:01:06.033Z,100993.69
2023-01-30T09:03:32.605Z,100964.50
2023-01-30T09:05:59.273Z,100975.72
2023-01-30T09:08:25.834Z,100925.13
2023-01-30T09:10:52.444Z,100983.22
2023-01-30T09:13:19.154Z,100990.69
2023-01-30T09:15:47.181Z,100969.56
2023-01-30T09:18:13.842Z,101004.06
2023-01-30T09:20:40.491Z,101000.09
2023-01-30T09:23:07.313Z,101000.47
2023-01-30T09:25:34.093Z,100977.56
2023-01-30T09:28:00.673Z,101000.13
2023-01-30T09:30:27.498Z,101006.84
2023-01-30T09:32:55.510Z,101004.28
2023-01-30T09:35:22.138Z,100981.50
2023-01-30T09:37:49.478Z,100980.47
2023-01-30T09:40:18.655Z,100977.22
2023-01-30T09:43:04.032Z,100975.44
2023-01-30T09:45:46.484Z,100962.56
2023-01-30T09:48:20.496Z,100970.84
2023-01-30T09:51:03.584Z,100984.28
2023-01-30T09:53:38.992Z,100960.56
2023-01-30T09:56:05.983Z,100977.16
2023-01-30T09:58:42.212Z,100990.91
2023-01-30T10:01:17.178Z,100973.97
2023-01-30T10:03:58.277Z,100977.81
2023-01-30T10:06:24.885Z,100884.84
2023-01-30T10:09:01.515Z,100985.28
2023-01-30T10:11:39.000Z,100996.44
2023-01-30T10:14:21.750Z,100980.78
2023-01-30T10:17:00.958Z,101002.31
2023-01-30T10:19:55.393Z,101003.25
2023-01-30T10:22:37.204Z,101001.19
2023-01-30T10:25:20.503Z,101008.31
2023-01-30T10:27:51.887Z,101010.72
2023-01-30T10:30:19.500Z,101006.22
2023-01-30T10:32:50.499Z,101006.44
2023-01-30T10:35:22.861Z,101005.59
2023-01-30T10:37:59.015Z,101013.34
2023-01-30T10:40:33.690Z,100953.66
2023-01-30T10:43:09.275Z,101011.03
2023-01-30T10:45:43.878Z,101007.66
2023-01-30T10:48:43.016Z,101017.25
2023-01-30T10:51:22.824Z,101000.72
2023-01-30T10:53:55.304Z,101004.53
2023-01-30T10:56:30.275Z,101014.09
2023-01-30T10:59:05.289Z,101011.28
2023-01-30T11:01:38.146Z,101022.06
2023-01-30T11:04:19.294Z,100957.56
2023-01-30T11:06:48.117Z,101018.09
2023-01-30T11:09:14.632Z,100994.00
2023-01-30T11:11:48.956Z,101019.44
2023-01-30T11:14:15.682Z,101021.03
2023-01-30T11:16:46.226Z,101029.97
2023-01-30T11:19:22.432Z,101033.53
2023-01-30T11:21:53.449Z,101035.03
2023-01-30T11:24:22.463Z,101029.13
2023-01-30T11:26:49.638Z,101033.53
2023-01-30T11:29:25.979Z,101017.88
2023-01-30T11:31:53.801Z,101042.06
2023-01-30T11:34:22.453Z,101047.72
2023-01-30T11:36:51.241Z,101046.88
2023-01-30T11:39:23.841Z,101033.75
2023-01-30T11:41:59.560Z,101047.50
2023-01-30T11:44:27.645Z,101034.59
2023-01-30T11:46:54.578Z,100996.63
2023-01-30T11:49:46.817Z,101027.13
2023-01-30T11:52:10.923Z,101035.44
2023-01-30T11:54:39.655Z,101021.34
2023-01-30T11:57:11.762Z,101041.09
2023-01-30T11:59:43.717Z,101021.56
2023-01-30T12:02:15.552Z,101025.00
2023-01-30T12:04:44.503Z,101027.97
2023-01-30T12:07:20.541Z,101029.22
2023-01-30T12:09:47.357Z,101016.38
2023-01-30T12:12:27.794Z,101023.97
2023-01-30T12:15:03.238Z,100974.34
2023-01-30T12:17:39.387Z,101035.94
2023-01-30T12:20:17.866Z,101037.63
2023-01-30T12:23:05.058Z,101030.69
2023-01-30T12:25:38.982Z,100942.69
2023-01-30T12:28:14.124Z,101032.47
2023-01-30T12:30:47.416Z,101040.44
2023-01-30T12:33:15.262Z,101037.72
2023-01-30T12:35:53.055Z,101040.00
2023-01-30T12:38:41.513Z,101033.53
2023-01-30T12:41:23.551Z,101027.91
2023-01-30T12:43:59.761Z,101034.47
2023-01-30T12:46:39.515Z,101032.25
2023-01-30T12:49:27.245Z,101021.34
2023-01-30T12:52:12.335Z,101025.44
2023-01-30T12:54:51.300Z,101011.09
2023-01-30T12:57:27.119Z,101021.31
2023-01-30T13:00:06.171Z,101030.97
2023-01-30T13:02:58.091Z,101029.06
2023-01-30T13:05:39.126Z,101073.06
2023-01-30T13:08:20.944Z,101066.91
2023-01-30T13:10:58.939Z,101058.81
2023-01-30T13:13:32.010Z,101061.16
2023-01-30T13:16:06.179Z,101053.25
2023-01-30T13:18:40.452Z,101073.03
2023-01-30T13:21:10.539Z,101067.88
2023-01-30T13:23:47.597Z,101076.19
2023-01-30T13:26:18.902Z,101095.94
2023-01-30T13:28:48.384Z,101082.50
2023-01-30T13:31:17.942Z,101078.19
2023-01-30T13:33:47.773Z,101069.16
2023-01-30T13:36:17.706Z,101083.34
2023-01-30T13:38:59.534Z,101094.41
2023-01-30T13:41:31.679Z,101103.53
2023-01-30T13:43:59.059Z,101080.63
2023-01-30T13:46:28.916Z,101094.63
2023-01-30T13:49:07.663Z,101097.75
2023-01-30T13:51:46.848Z,101089.84
2023-01-30T13:54:37.749Z,101104.06
2023-01-30T13:57:16.868Z,101115.31
2023-01-30T13:59:59.871Z,101114.03
2023-01-30T14:02:26.843Z,101083.56
2023-01-30T14:04:54.357Z,101120.88
2023-01-30T14:07:25.043Z,101095.34
2023-01-30T14:10:04.262Z,101118.63
2023-01-30T14:12:36.154Z,101127.72
2023-01-30T14:15:04.767Z,101127.06
2023-01-30T14:17:31.540Z,101132.44
2023-01-30T14:20:01.265Z,101137.81
2023-01-30T14:22:39.554Z,101107.72
2023-01-30T14:25:43.477Z,101150.41
2023-01-30T14:28:49.676Z,101158.44
2023-01-30T14:31:49.765Z,101174.47
2023-01-30T14:34:49.282Z,101169.75
2023-01-30T14:37:30.348Z,101172.78
2023-01-30T14:39:57.910Z,101174.72
2023-01-30T14:42:25.917Z,101176.69
2023-01-30T14:45:00.944Z,101162.19
2023-01-30T14:47:35.171Z,101169.88
2023-01-30T14:50:20.718Z,101169.53
2023-01-30T14:52:48.247Z,101178.03
2023-01-30T14:55:21.154Z,101169.44
2023-01-30T14:57:54.012Z,101173.94
2023-01-30T15:00:25.753Z,101181.81
2023-01-30T15:02:56.498Z,101191.56
2023-01-30T15:05:30.899Z,101198.25
2023-01-30T15:08:05.393Z,101206.88
2023-01-30T15:10:52.234Z,101206.34
2023-01-30T15:13:33.465Z,101206.34
2023-01-30T15:16:11.205Z,101198.97
2023-01-30T15:18:54.249Z,101210.22
2023-01-30T15:21:38.323Z,101219.53
2023-01-30T15:24:20.647Z,101186.88
2023-01-30T15:26:58.704Z,101227.41
2023-01-30T15:29:37.699Z,101215.00
2023-01-30T15:32:16.629Z,101229.81
2023-01-30T15:34:49.710Z,101233.06
2023-01-30T15:37:34.684Z,101244.28
2023-01-30T15:40:18.601Z,101248.22
2023-01-30T15:42:47.485Z,101240.72
2023-01-30T15:45:23.364Z,101223.75
2023-01-30T15:48:07.156Z,101228.66
2023-01-30T15:50:33.877Z,101247.44
2023-01-30T15:53:02.304Z,101243.63
2023-01-30T15:55:31.118Z,101222.59
2023-01-30T15:58:00.980Z,101250.88
2023-01-30T16:00:30.524Z,101265.03
2023-01-30T16:02:58.609Z,101260.34
2023-01-30T16:05:26.487Z,101183.75
2023-01-30T16:07:54.626Z,101288.31
2023-01-30T16:10:24.302Z,101294.97
2023-01-30T16:12:52.598Z,101271.81
2023-01-30T16:15:28.281Z,101298.44
2023-01-30T16:18:00.617Z,101312.88
2023-01-30T16:20:27.468Z,101291.78
2023-01-30T16:22:54.602Z,101321.03
2023-01-30T16:25:25.669Z,101319.81
2023-01-30T16:27:52.814Z,101326.19
2023-01-30T16:30:22.861Z,101337.91
2023-01-30T16:32:51.238Z,101338.56
2023-01-30T16:35:28.352Z,101342.03
2023-01-30T16:37:56.651Z,101311.53
2023-01-30T16:40:25.966Z,101357.03
2023-01-30T16:42:57.628Z,101346.78
2023-01-30T16:46:04.695Z,101362.00
2023-01-30T16:48:34.842Z,101318.53
2023-01-30T16:51:25.232Z,101371.66
2023-01-30T16:53:58.355Z,101374.44
2023-01-30T16:56:27.090Z,101373.69
2023-01-30T16:58:57.222Z,101376.88
2023-01-30T17:01:35.900Z,101386.63
2023-01-30T17:04:05.190Z,101345.25
2023-01-30T17:06:36.995Z,101397.59
2023-01-30T17:09:03.677Z,101407.41
2023-01-30T17:11:34.863Z,101410.13
2023-01-30T17:14:18.016Z,101421.75
2023-01-30T17:16:44.943Z,101419.78
2023-01-30T17:19:12.277Z,101429.25
2023-01-30T17:21:44.501Z,101387.59
2023-01-30T17:24:15.664Z,101425.13
2023-01-30T17:26:44.804Z,101422.00
2023-01-30T17:29:23.307Z,101431.38
2023-01-30T17:31:56.815Z,101434.22
2023-01-30T17:34:23.835Z,101428.47
2023-01-30T17:36:51.722Z,101435.97
2023-01-30T17:39:20.964Z,101426.84
2023-01-30T17:41:49.308Z,101440.38
2023-01-30T17:44:15.856Z,101440.88
2023-01-30T17:46:44.418Z,101445.56
2023-01-30T17:49:14.968Z,101441.22
2023-01-30T17:51:42.067Z,101450.09
2023-01-30T17:54:08.952Z,101454.44
2023-01-30T17:56:38.446Z,101459.59
2023-01-30T17:59:09.907Z,101461.19
2023-01-30T18:01:36.554Z,101460.34
2023-01-30T18:04:03.159Z,101471.94
2023-01-30T18:06:30.596Z,101471.78
2023-01-30T18:08:57.405Z,101432.88
2023-01-30T18:11:24.207Z,101480.94
2023-01-30T18:13:50.876Z,101480.44
2023-01-30T18:16:22.445Z,101493.94
2023-01-30T18:18:49.407Z,101489.16
2023-01-30T18:21:16.539Z,101493.47
2023-01-30T18:23:43.369Z,101501.72
2023-01-30T18:26:12.209Z,101513.00
2023-01-30T18:28:39.567Z,101508.88
2023-01-30T18:31:06.281Z,101517.47
2023-01-30T18:33:34.233Z,101509.78
2023-01-30T18:36:04.665Z,101510.78
2023-01-30T18:38:31.252Z,101515.03
2023-01-30T18:40:57.987Z,101522.47
2023-01-30T18:43:24.774Z,101509.97
2023-01-30T18:46:01.961Z,101515.97
2023-01-30T18:48:30.124Z,101518.59
2023-01-30T18:51:05.279Z,101525.03
2023-01-30T18:53:32.266Z,101521.63
2023-01-30T18:55:58.842Z,101525.69
2023-01-30T18:58:25.410Z,101528.00
2023-01-30T19:00:52.146Z,101523.09
2023-01-30T19:03:18.921Z,101523.09
2023-01-30T19:05:45.461Z,101528.34
2023-01-30T19:08:13.433Z,101502.69
2023-01-30T19:10:39.916Z,101532.53
2023-01-30T19:13:06.574Z,101532.19
2023-01-30T19:15:35.005Z,101536.88
2023-01-30T19:18:01.588Z,101543.16
2023-01-30T19:20:28.663Z,101543.22
2023-01-30T19:22:55.482Z,101542.44
2023-01-30T19:25:23.745Z,101541.84
2023-01-30T19:27:50.304Z,101547.53
2023-01-30T19:30:17.740Z,101544.28
2023-01-30T19:32:44.582Z,101556.47
2023-01-30T19:35:11.937Z,101530.94
2023-01-30T19:37:38.498Z,101550.84
2023-01-30T19:40:07.181Z,101559.44
2023-01-30T19:42:35.176Z,101556.81
2023-01-30T19:45:01.812Z,101556.09
2023-01-30T19:47:28.635Z,101570.97
2023-01-30T19:49:55.126Z,101570.78
2023-01-30T19:52:21.774Z,101567.22
2023-01-30T19:54:48.276Z,101575.75
2023-01-30T19:57:14.865Z,101586.91
2023-01-30T19:59:42.751Z,101572.81
2023-01-30T20:02:09.773Z,101585.91
2023-01-30T20:04:36.302Z,101591.97
2023-01-30T20:07:02.910Z,101596.88
2023-01-30T20:09:29.808Z,101597.91
2023-01-30T20:11:56.457Z,101604.94
2023-01-30T20:14:23.378Z,101605.06
2023-01-30T20:16:51.322Z,101592.41
2023-01-30T20:19:17.834Z,101608.97
2023-01-30T20:21:44.795Z,101620.06
2023-01-30T20:24:12.230Z,101620.91
2023-01-30T20:26:39.604Z,101627.84
2023-01-30T20:29:07.725Z,101564.81
2023-01-30T20:31:34.542Z,101625.16
2023-01-30T20:34:04.044Z,101622.16
2023-01-30T20:36:30.900Z,101627.72
2023-01-30T20:39:00.095Z,101630.72
2023-01-30T20:41:26.650Z,101641.00
2023-01-30T20:43:54.882Z,101635.56
2023-01-30T20:46:23.308Z,101615.97
2023-01-30T20:48:52.828Z,101642.66
2023-01-30T20:51:24.285Z,101649.19
2023-01-30T20:53:53.231Z,101650.34
2023-01-30T20:56:21.613Z,101620.75
2023-01-30T20:58:48.737Z,101640.47
2023-01-30T21:01:18.370Z,101661.59
2023-01-30T21:03:46.499Z,101638.88
2023-01-30T21:06:13.130Z,101662.59
2023-01-30T21:08:41.310Z,101670.75
2023-01-30T21:11:09.916Z,101673.00
2023-01-30T21:13:37.289Z,101639.72
2023-01-30T21:16:06.315Z,101669.00
2023-01-30T21:18:35.026Z,101675.19
2023-01-30T21:21:02.356Z,101676.22
2023-01-30T21:23:29.866Z,101677.03
2023-01-30T21:26:04.197Z,101676.84
2023-01-30T21:28:30.856Z,101667.75
2023-01-30T21:31:03.720Z,101688.19
2023-01-30T21:33:30.444Z,101682.00
2023-01-30T21:35:58.584Z,101684.56
2023-01-30T21:38:25.417Z,101693.28
2023-01-30T21:40:52.352Z,101696.75
2023-01-30T21:43:20.346Z,101705.34
2023-01-30T21:45:47.034Z,101709.53
2023-01-30T21:48:13.638Z,101735.69
2023-01-30T21:50:40.371Z,101729.66
2023-01-30T21:53:06.970Z,101737.59
2023-01-30T21:55:33.512Z,101735.44
2023-01-30T21:58:00.113Z,101737.88
2023-01-30T22:00:27.999Z,101730.09
2023-01-30T22:02:54.901Z,101727.22
2023-01-30T22:05:21.812Z,101740.19
2023-01-30T22:07:48.948Z,101685.16
2023-01-30T22:10:16.119Z,101739.41
2023-01-30T22:12:42.727Z,101744.81
2023-01-30T22:15:10.228Z,101747.63
2023-01-30T22:17:38.655Z,101751.41
2023-01-30T22:20:05.836Z,101754.13
2023-01-30T22:22:32.510Z,101751.63
2023-01-30T22:24:59.028Z,101755.31
2023-01-30T22:27:25.671Z,101759.09
2023-01-30T22:29:52.293Z,101761.69
2023-01-30T22:32:18.867Z,101764.31
2023-01-30T22:34:46.796Z,101759.09
2023-01-30T22:37:13.700Z,101751.91
2023-01-30T22:39:40.312Z,101753.22
2023-01-30T22:42:07.293Z,101755.28
2023-01-30T22:44:34.063Z,101771.53
2023-01-30T22:47:00.789Z,101762.13
2023-01-30T22:49:27.309Z,101763.81
2023-01-30T22:51:55.272Z,101745.00
2023-01-30T22:54:21.793Z,101764.66
2023-01-30T22:56:51.766Z,101748.47
2023-01-30T22:59:18.468Z,101769.75
2023-01-30T23:01:46.983Z,101756.94
2023-01-30T23:04:15.121Z,101718.69
2023-01-30T23:06:42.131Z,101772.47
2023-01-30T23:09:13.266Z,101771.53
2023-01-30T23:11:41.943Z,101768.13
2023-01-30T23:14:11.725Z,101763.81
2023-01-30T23:16:40.634Z,101765.94
2023-01-30T23:19:09.401Z,101718.53
2023-01-30T23:21:38.074Z,101773.03
2023-01-30T23:24:07.266Z,101772.03
2023-01-30T23:26:40.278Z,101773.44
2023-01-30T23:29:09.065Z,101768.09
2023-01-30T23:31:36.741Z,101765.19
2023-01-30T23:34:05.408Z,101766.78
2023-01-30T23:36:32.664Z,101768.50
2023-01-30T23:39:00.768Z,101757.63
2023-01-30T23:41:29.193Z,101767.00
2023-01-30T23:43:58.284Z,101769.75
2023-01-30T23:46:26.992Z,101767.84
2023-01-30T23:48:55.148Z,101765.31
2023-01-30T23:51:23.133Z,101764.31
2023-01-30T23:53:50.744Z,101771.47
2023-01-30T23:56:18.460Z,101765.38
2023-01-30T23:58:45.667Z,101771.47
